Terminal Aerodrome Forecast
Issued by NWS

Home | Current Version | Previous Version | Graphics & Text | Print | Product List | Glossary On
Versions: 1 2 3 4 5 6 7 8 9 10 11 12 13 14 15 16 17 18 19 20 21
000
FTUS43 KICT 151100
TAFCNU
TAF
KCNU 151137Z 1512/1612 19011KT P6SM BKN100
     FM151400 21013KT P6SM BKN120
     FM152100 01013KT P6SM VCSH BKN040
     FM160100 03011KT P6SM VCSH OVC030
     FM160700 06009KT P6SM BKN025=

USA.gov is the U.S. government's official web portal to all federal, state and local government web resources and services.